createdAt,value
2018-03-14T00:00:07.335Z,0.00
2018-03-14T00:01:07.312Z,0.00
2018-03-14T00:02:07.318Z,0.00
2018-03-14T00:03:07.353Z,0.00
2018-03-14T00:04:07.355Z,0.00
2018-03-14T00:05:07.399Z,0.00
2018-03-14T00:06:07.388Z,0.00
2018-03-14T00:07:07.417Z,0.00
2018-03-14T00:08:07.401Z,0.00
2018-03-14T00:09:07.418Z,0.00
2018-03-14T00:10:07.445Z,0.00
2018-03-14T00:11:07.485Z,0.00
2018-03-14T00:12:07.519Z,0.00
2018-03-14T00:13:07.473Z,0.00
2018-03-14T00:14:07.487Z,0.00
2018-03-14T00:15:07.521Z,0.00
2018-03-14T00:16:07.529Z,0.00
2018-03-14T00:17:07.548Z,0.00
2018-03-14T00:18:07.592Z,0.00
2018-03-14T00:19:07.592Z,0.00
2018-03-14T00:20:07.577Z,0.00
2018-03-14T00:21:07.629Z,0.00
2018-03-14T00:22:07.681Z,0.00
2018-03-14T00:23:07.626Z,0.00
2018-03-14T00:24:07.641Z,0.00
2018-03-14T00:25:07.663Z,0.00
2018-03-14T00:26:07.673Z,0.00
2018-03-14T00:27:07.727Z,0.00
2018-03-14T00:28:07.712Z,0.00
2018-03-14T00:29:07.715Z,0.00
2018-03-14T00:30:07.722Z,0.00
2018-03-14T00:31:07.777Z,0.00
2018-03-14T00:32:07.782Z,0.00
2018-03-14T00:33:07.795Z,0.00
2018-03-14T00:34:07.791Z,0.00
2018-03-14T00:35:07.814Z,0.00
2018-03-14T00:36:07.823Z,0.00
2018-03-14T00:37:07.837Z,0.00
2018-03-14T00:38:07.883Z,0.00
2018-03-14T00:39:07.892Z,0.00
2018-03-14T00:40:07.881Z,0.00
2018-03-14T00:41:07.899Z,0.00
2018-03-14T00:42:07.908Z,0.00
2018-03-14T00:43:07.939Z,0.00
2018-03-14T00:44:07.957Z,0.00
2018-03-14T00:45:07.960Z,0.00
2018-03-14T00:46:07.970Z,0.00
2018-03-14T00:47:07.987Z,0.00
2018-03-14T00:48:08.009Z,0.00
2018-03-14T00:49:08.028Z,0.00
2018-03-14T00:50:08.116Z,0.00
2018-03-14T00:51:08.096Z,0.00
2018-03-14T00:52:08.105Z,0.00
2018-03-14T00:53:08.094Z,0.00
2018-03-14T00:54:08.089Z,0.00
2018-03-14T00:55:08.133Z,0.00
2018-03-14T00:56:08.140Z,0.00
2018-03-14T00:57:08.128Z,0.00
2018-03-14T00:58:08.167Z,0.00
2018-03-14T00:59:08.200Z,0.00
2018-03-14T01:00:08.196Z,0.00
2018-03-14T01:01:08.192Z,0.00
2018-03-14T01:02:08.201Z,0.00
2018-03-14T01:03:08.215Z,0.00
2018-03-14T01:04:08.258Z,0.00
2018-03-14T01:05:08.265Z,0.00
2018-03-14T01:06:08.275Z,0.00
2018-03-14T01:07:08.295Z,0.00
2018-03-14T01:08:08.315Z,0.00
2018-03-14T01:09:08.310Z,0.00
2018-03-14T01:10:08.337Z,0.00
2018-03-14T01:11:08.358Z,0.00
2018-03-14T01:12:08.351Z,0.00
2018-03-14T01:13:08.395Z,0.00
2018-03-14T01:14:08.396Z,0.00
2018-03-14T01:15:08.395Z,0.00
2018-03-14T01:16:08.423Z,0.00
2018-03-14T01:17:08.428Z,0.00
2018-03-14T01:18:08.444Z,0.00
2018-03-14T01:19:08.473Z,0.00
2018-03-14T01:20:08.466Z,0.00
2018-03-14T01:21:08.501Z,0.00
2018-03-14T01:22:08.541Z,0.00
2018-03-14T01:23:08.528Z,0.00
2018-03-14T01:24:08.548Z,0.00
2018-03-14T01:25:08.588Z,0.00
2018-03-14T01:26:08.587Z,0.00
2018-03-14T01:27:08.580Z,0.00
2018-03-14T01:28:08.598Z,0.00
2018-03-14T01:29:08.609Z,0.00
2018-03-14T01:30:08.620Z,0.00
2018-03-14T01:31:08.674Z,0.00
2018-03-14T01:32:08.652Z,0.00
2018-03-14T01:33:08.682Z,0.00
2018-03-14T01:34:08.683Z,0.00
2018-03-14T01:35:08.717Z,0.00
2018-03-14T01:36:08.718Z,0.00
2018-03-14T01:37:08.735Z,0.00
2018-03-14T01:38:08.741Z,0.00
2018-03-14T01:39:08.759Z,0.00
2018-03-14T01:40:08.776Z,0.00
2018-03-14T01:41:08.803Z,0.00
2018-03-14T01:42:08.807Z,0.00
2018-03-14T01:43:08.845Z,0.00
2018-03-14T01:44:08.827Z,0.00
2018-03-14T01:45:08.842Z,0.00
2018-03-14T01:46:08.878Z,0.00
2018-03-14T01:47:08.924Z,0.00
2018-03-14T01:48:08.911Z,0.00
2018-03-14T01:49:08.946Z,0.00
2018-03-14T01:50:08.966Z,0.00
2018-03-14T01:51:08.956Z,0.00
2018-03-14T01:52:08.957Z,0.00
2018-03-14T01:53:08.966Z,0.00
2018-03-14T01:54:09.037Z,0.00
2018-03-14T01:55:09.025Z,0.00
2018-03-14T01:56:09.007Z,0.00
2018-03-14T01:57:09.023Z,0.00
2018-03-14T01:58:09.041Z,0.00
2018-03-14T01:59:09.051Z,0.00
2018-03-14T02:00:09.098Z,0.00
2018-03-14T02:01:09.089Z,0.00
2018-03-14T02:02:09.099Z,0.00
2018-03-14T02:03:09.109Z,0.00
2018-03-14T02:04:09.128Z,0.00
2018-03-14T02:05:09.165Z,0.00
2018-03-14T02:06:09.162Z,0.00
2018-03-14T02:07:09.191Z,0.00
2018-03-14T02:08:09.183Z,0.00
2018-03-14T02:09:09.197Z,0.00
2018-03-14T02:10:09.216Z,0.00
2018-03-14T02:11:09.236Z,0.00
2018-03-14T02:12:09.242Z,0.00
2018-03-14T02:13:09.255Z,0.00
2018-03-14T02:14:09.275Z,0.00
2018-03-14T02:15:09.292Z,0.00
2018-03-14T02:16:09.304Z,0.00
2018-03-14T02:17:09.310Z,0.00
2018-03-14T02:18:09.341Z,0.00
2018-03-14T02:19:09.337Z,0.00
2018-03-14T02:20:09.371Z,0.00
2018-03-14T02:21:09.416Z,0.00
2018-03-14T02:22:09.382Z,0.00
2018-03-14T02:23:09.515Z,0.00
2018-03-14T02:24:09.421Z,0.00
2018-03-14T02:25:09.433Z,0.00
2018-03-14T02:26:09.440Z,0.00
2018-03-14T02:27:09.480Z,0.00
2018-03-14T02:28:09.483Z,0.00
2018-03-14T02:29:09.502Z,0.00
2018-03-14T02:30:09.512Z,0.00
2018-03-14T02:31:09.516Z,0.00
2018-03-14T02:32:09.579Z,0.00
2018-03-14T02:33:09.575Z,0.00
2018-03-14T02:34:09.560Z,0.00
2018-03-14T02:35:09.586Z,0.00
2018-03-14T02:36:09.602Z,0.00
2018-03-14T02:37:09.617Z,0.00
2018-03-14T02:38:09.654Z,0.00
2018-03-14T02:39:09.671Z,0.00
2018-03-14T02:40:09.677Z,0.00
2018-03-14T02:41:09.661Z,0.00
2018-03-14T02:42:09.687Z,0.00
2018-03-14T02:43:09.691Z,0.00
2018-03-14T02:44:09.765Z,0.00
2018-03-14T02:45:09.725Z,0.00
2018-03-14T02:46:09.733Z,0.00
2018-03-14T02:47:09.755Z,0.00
2018-03-14T02:48:09.872Z,0.00
2018-03-14T02:49:09.850Z,0.00
2018-03-14T02:50:09.806Z,0.00
2018-03-14T02:51:09.808Z,0.00
2018-03-14T02:52:09.876Z,0.00
2018-03-14T02:53:09.840Z,0.00
2018-03-14T02:54:09.888Z,0.00
2018-03-14T02:55:09.879Z,0.00
2018-03-14T02:56:09.894Z,0.00
2018-03-14T02:57:09.898Z,0.00
2018-03-14T02:58:09.921Z,0.00
2018-03-14T02:59:09.922Z,0.00
2018-03-14T03:00:09.969Z,0.00
2018-03-14T03:01:09.970Z,0.00
2018-03-14T03:02:09.993Z,0.00
2018-03-14T03:03:09.985Z,0.00
2018-03-14T03:04:10.007Z,0.00
2018-03-14T03:05:10.023Z,0.00
2018-03-14T03:06:10.100Z,0.00
2018-03-14T03:07:10.044Z,0.00
2018-03-14T03:08:10.064Z,0.00
2018-03-14T03:09:10.107Z,0.00
2018-03-14T03:10:10.092Z,0.00
2018-03-14T03:11:10.107Z,0.00
2018-03-14T03:12:10.117Z,0.00
2018-03-14T03:13:10.143Z,0.00
2018-03-14T03:14:10.178Z,0.00
2018-03-14T03:15:10.172Z,0.00
2018-03-14T03:16:10.201Z,0.00
2018-03-14T03:17:10.200Z,0.00
2018-03-14T03:18:10.227Z,0.00
2018-03-14T03:19:10.246Z,0.00
2018-03-14T03:20:10.250Z,0.00
2018-03-14T03:21:10.260Z,0.00
2018-03-14T03:22:10.290Z,0.00
2018-03-14T03:23:10.291Z,0.00
2018-03-14T03:24:10.380Z,0.00
2018-03-14T03:25:10.339Z,0.00
2018-03-14T03:26:10.357Z,0.00
2018-03-14T03:27:10.339Z,0.00
2018-03-14T03:28:10.368Z,0.00
2018-03-14T03:29:10.367Z,0.00
2018-03-14T03:30:10.392Z,0.00
2018-03-14T03:31:10.407Z,0.00
2018-03-14T03:32:10.424Z,0.00
2018-03-14T03:33:10.474Z,0.00
2018-03-14T03:34:10.450Z,0.00
2018-03-14T03:35:10.452Z,0.00
2018-03-14T03:36:10.521Z,0.00
2018-03-14T03:37:10.504Z,0.00
2018-03-14T03:38:10.499Z,0.00
2018-03-14T03:39:10.514Z,0.00
2018-03-14T03:40:10.556Z,0.00
2018-03-14T03:41:10.590Z,0.00
2018-03-14T03:42:10.561Z,0.00
2018-03-14T03:43:10.576Z,0.00
2018-03-14T03:44:10.590Z,0.00
2018-03-14T03:45:10.628Z,0.00
2018-03-14T03:46:10.664Z,0.00
2018-03-14T03:47:10.630Z,0.00
2018-03-14T03:48:10.651Z,0.00
2018-03-14T03:49:10.667Z,0.00
2018-03-14T03:50:10.674Z,0.00
2018-03-14T03:51:10.703Z,0.00
2018-03-14T03:52:10.743Z,0.00
2018-03-14T03:53:10.749Z,0.00
2018-03-14T03:54:10.756Z,0.00
2018-03-14T03:55:10.802Z,0.00
2018-03-14T03:56:10.782Z,0.00
2018-03-14T03:57:10.803Z,0.00
2018-03-14T03:58:10.819Z,0.00
2018-03-14T03:59:10.847Z,0.00
2018-03-14T04:00:10.824Z,0.00
2018-03-14T04:01:10.854Z,0.00
2018-03-14T04:02:10.853Z,0.00
2018-03-14T04:03:10.873Z,0.00
2018-03-14T04:04:10.883Z,0.00
2018-03-14T04:05:10.900Z,0.00
2018-03-14T04:06:10.930Z,0.00
2018-03-14T04:07:10.931Z,0.00
2018-03-14T04:08:10.949Z,0.00
2018-03-14T04:09:10.961Z,0.00
2018-03-14T04:10:11.019Z,0.00
2018-03-14T04:11:10.991Z,0.00
2018-03-14T04:12:11.001Z,0.00
2018-03-14T04:13:11.040Z,0.00
2018-03-14T04:14:11.053Z,0.00
2018-03-14T04:15:11.091Z,0.00
2018-03-14T04:16:11.062Z,0.00
2018-03-14T04:17:11.084Z,0.00
2018-03-14T04:18:11.088Z,0.00
2018-03-14T04:19:11.136Z,0.00
2018-03-14T04:20:11.131Z,0.00
2018-03-14T04:21:11.134Z,0.00
2018-03-14T04:22:11.148Z,0.00
2018-03-14T04:23:11.183Z,0.00
2018-03-14T04:24:11.239Z,0.00
2018-03-14T04:25:11.205Z,0.00
2018-03-14T04:26:11.220Z,0.00
2018-03-14T04:27:11.225Z,0.00
2018-03-14T04:28:11.296Z,0.00
2018-03-14T04:29:11.337Z,0.00
2018-03-14T04:30:11.272Z,0.00
2018-03-14T04:31:11.330Z,0.00
2018-03-14T04:32:11.302Z,0.00
2018-03-14T04:33:11.324Z,0.00
2018-03-14T04:34:11.328Z,0.00
2018-03-14T04:35:11.346Z,0.00
2018-03-14T04:36:11.370Z,0.00
2018-03-14T04:37:11.380Z,0.00
2018-03-14T04:38:11.410Z,0.00
2018-03-14T04:39:11.401Z,0.00
2018-03-14T04:40:11.482Z,0.00
2018-03-14T04:41:11.452Z,0.00
2018-03-14T04:42:11.450Z,0.00
2018-03-14T04:43:11.492Z,0.00
2018-03-14T04:44:11.491Z,0.00
2018-03-14T04:45:11.520Z,0.00
2018-03-14T04:46:11.576Z,0.00
2018-03-14T04:47:11.537Z,0.00
2018-03-14T04:48:11.552Z,0.00
2018-03-14T04:49:11.565Z,0.00
2018-03-14T04:50:11.611Z,0.00
2018-03-14T04:51:11.583Z,0.00
2018-03-14T04:52:11.664Z,0.00
2018-03-14T04:53:11.632Z,0.00
2018-03-14T04:54:11.670Z,0.00
2018-03-14T04:55:11.652Z,0.00
2018-03-14T04:56:11.682Z,0.00
2018-03-14T04:57:11.669Z,0.00
2018-03-14T04:58:11.689Z,0.00
2018-03-14T04:59:11.729Z,0.00
2018-03-14T05:00:11.732Z,0.00
2018-03-14T05:01:11.726Z,0.00
2018-03-14T05:02:11.758Z,0.00
2018-03-14T05:03:11.786Z,0.00
2018-03-14T05:04:11.791Z,0.00
2018-03-14T05:05:11.795Z,0.00
2018-03-14T05:06:11.832Z,0.00
2018-03-14T05:07:11.836Z,0.00
2018-03-14T05:08:11.836Z,0.00
2018-03-14T05:09:11.852Z,0.00
2018-03-14T05:10:11.871Z,0.00
2018-03-14T05:11:11.879Z,0.00
2018-03-14T05:12:11.896Z,0.00
2018-03-14T05:13:11.904Z,0.00
2018-03-14T05:14:11.988Z,0.00
2018-03-14T05:15:11.942Z,0.00
2018-03-14T05:16:11.974Z,0.00
2018-03-14T05:17:11.982Z,0.00
2018-03-14T05:18:12.000Z,0.00
2018-03-14T05:19:12.027Z,0.00
2018-03-14T05:20:12.026Z,0.00
2018-03-14T05:21:12.031Z,0.00
2018-03-14T05:22:12.048Z,0.00
2018-03-14T05:23:12.064Z,0.00
2018-03-14T05:24:12.092Z,0.00
2018-03-14T05:25:12.091Z,0.00
2018-03-14T05:26:12.109Z,0.00
2018-03-14T05:27:12.138Z,0.00
2018-03-14T05:28:12.135Z,0.00
2018-03-14T05:29:12.144Z,0.00
2018-03-14T05:30:12.186Z,0.00
2018-03-14T05:31:12.183Z,0.00
2018-03-14T05:32:12.214Z,0.00
2018-03-14T05:33:12.218Z,0.00
2018-03-14T05:34:12.258Z,0.00
2018-03-14T05:35:12.265Z,0.00
2018-03-14T05:36:12.264Z,0.00
2018-03-14T05:37:12.285Z,0.00
2018-03-14T05:38:12.280Z,0.00
2018-03-14T05:39:12.337Z,0.00
2018-03-14T05:40:12.308Z,0.00
2018-03-14T05:41:12.324Z,0.00
2018-03-14T05:42:12.365Z,0.00
2018-03-14T05:43:12.389Z,0.00
2018-03-14T05:44:12.375Z,5.63
2018-03-14T05:45:12.383Z,5.63
2018-03-14T05:46:12.427Z,5.63
2018-03-14T05:47:12.413Z,5.63
2018-03-14T05:48:12.433Z,5.63
2018-03-14T05:49:12.501Z,5.63
2018-03-14T05:50:12.471Z,5.63
2018-03-14T05:51:12.479Z,11.25
2018-03-14T05:52:12.490Z,11.25
2018-03-14T05:53:12.498Z,11.25
2018-03-14T05:54:12.529Z,11.25
2018-03-14T05:55:12.543Z,11.25
2018-03-14T05:56:12.544Z,11.25
2018-03-14T05:57:12.552Z,16.88
2018-03-14T05:58:12.586Z,16.88
2018-03-14T05:59:12.608Z,16.88
2018-03-14T06:00:12.606Z,16.88
2018-03-14T06:01:12.631Z,16.88
2018-03-14T06:02:12.673Z,16.88
2018-03-14T06:03:12.681Z,16.88
2018-03-14T06:04:12.696Z,22.50
2018-03-14T06:05:12.675Z,22.50
2018-03-14T06:06:12.702Z,22.50
2018-03-14T06:07:12.712Z,22.50
2018-03-14T06:08:12.752Z,22.50
2018-03-14T06:09:12.782Z,22.50
2018-03-14T06:10:12.783Z,22.50
2018-03-14T06:11:12.776Z,22.50
2018-03-14T06:12:12.801Z,22.50
2018-03-14T06:13:12.801Z,22.50
2018-03-14T06:14:12.818Z,22.50
2018-03-14T06:15:12.839Z,22.50
2018-03-14T06:16:12.836Z,22.50
2018-03-14T06:17:12.895Z,22.50
2018-03-14T06:18:12.896Z,22.50
2018-03-14T06:19:12.899Z,28.13
2018-03-14T06:20:12.902Z,28.13
2018-03-14T06:21:12.932Z,28.13
2018-03-14T06:22:12.929Z,28.13
2018-03-14T06:23:12.959Z,33.75
2018-03-14T06:24:12.980Z,33.75
2018-03-14T06:25:12.976Z,39.38
2018-03-14T06:26:12.988Z,39.38
2018-03-14T06:27:13.017Z,39.38
2018-03-14T06:28:13.026Z,45.00
2018-03-14T06:29:13.053Z,45.00
2018-03-14T06:30:13.048Z,39.38
2018-03-14T06:31:13.067Z,39.38
2018-03-14T06:32:13.085Z,45.00
2018-03-14T06:33:13.088Z,45.00
2018-03-14T06:34:13.157Z,45.00
2018-03-14T06:35:13.118Z,45.00
2018-03-14T06:36:13.136Z,50.63
2018-03-14T06:37:13.205Z,50.63
2018-03-14T06:38:13.165Z,50.63
2018-03-14T06:39:13.184Z,45.00
2018-03-14T06:40:13.230Z,39.38
2018-03-14T06:41:13.224Z,33.75
2018-03-14T06:42:13.291Z,28.13
2018-03-14T06:43:13.296Z,22.50
2018-03-14T06:44:13.269Z,28.13
2018-03-14T06:45:13.271Z,33.75
2018-03-14T06:46:13.286Z,39.38
2018-03-14T06:47:13.296Z,50.63
2018-03-14T06:48:13.312Z,61.88
2018-03-14T06:49:13.364Z,67.50
2018-03-14T06:50:13.346Z,67.50
2018-03-14T06:51:13.374Z,67.50
2018-03-14T06:52:13.375Z,67.50
2018-03-14T06:53:13.402Z,67.50
2018-03-14T06:54:13.406Z,67.50
2018-03-14T06:55:13.420Z,67.50
2018-03-14T06:56:13.479Z,61.88
2018-03-14T06:57:13.455Z,61.88
2018-03-14T06:58:13.481Z,67.50
2018-03-14T06:59:13.513Z,67.50
2018-03-14T07:00:13.509Z,73.13
2018-03-14T07:01:13.521Z,73.13
2018-03-14T07:02:13.531Z,73.13
2018-03-14T07:03:13.550Z,67.50
2018-03-14T07:04:13.588Z,61.88
2018-03-14T07:05:13.601Z,67.50
2018-03-14T07:06:13.577Z,73.13
2018-03-14T07:07:13.641Z,73.13
2018-03-14T07:08:13.622Z,78.75
2018-03-14T07:09:13.655Z,90.00
2018-03-14T07:10:13.643Z,95.63
2018-03-14T07:11:13.651Z,95.63
2018-03-14T07:12:13.680Z,101.25
2018-03-14T07:13:13.723Z,106.88
2018-03-14T07:14:13.711Z,106.88
2018-03-14T07:15:13.720Z,112.50
2018-03-14T07:16:13.737Z,123.75
2018-03-14T07:17:13.756Z,135.00
2018-03-14T07:18:13.763Z,135.00
2018-03-14T07:19:13.809Z,129.38
2018-03-14T07:20:13.798Z,123.75
2018-03-14T07:21:13.802Z,118.13
2018-03-14T07:22:13.852Z,118.13
2018-03-14T07:23:13.864Z,123.75
2018-03-14T07:24:13.861Z,129.38
2018-03-14T07:25:13.862Z,135.00
2018-03-14T07:26:13.875Z,140.63
2018-03-14T07:27:13.913Z,146.25
2018-03-14T07:28:14.013Z,146.25
2018-03-14T07:29:13.936Z,151.88
2018-03-14T07:30:13.947Z,151.88
2018-03-14T07:31:13.959Z,151.88
2018-03-14T07:32:13.964Z,146.25
2018-03-14T07:33:13.979Z,146.25
2018-03-14T07:34:14.006Z,151.88
2018-03-14T07:35:14.038Z,151.88
2018-03-14T07:36:14.063Z,146.25
2018-03-14T07:37:14.055Z,140.63
2018-03-14T07:38:14.079Z,135.00
2018-03-14T07:39:14.075Z,129.38
2018-03-14T07:40:14.170Z,123.75
2018-03-14T07:41:14.100Z,118.13
2018-03-14T07:42:14.136Z,118.13
2018-03-14T07:43:14.152Z,123.75
2018-03-14T07:44:14.165Z,129.38
2018-03-14T07:45:14.180Z,135.00
2018-03-14T07:46:14.244Z,140.63
2018-03-14T07:47:14.189Z,140.63
2018-03-14T07:48:14.210Z,146.25
2018-03-14T07:49:14.223Z,151.88
2018-03-14T07:50:14.236Z,157.50
2018-03-14T07:51:14.250Z,163.13
2018-03-14T07:52:14.299Z,168.75
2018-03-14T07:53:14.293Z,168.75
2018-03-14T07:54:14.315Z,174.38
2018-03-14T07:55:14.342Z,180.00
2018-03-14T07:56:14.332Z,180.00
2018-03-14T07:57:14.387Z,180.00
2018-03-14T07:58:14.395Z,180.00
2018-03-14T07:59:14.374Z,180.00
2018-03-14T08:00:14.406Z,180.00
2018-03-14T08:01:14.440Z,174.38
2018-03-14T08:02:14.439Z,174.38
2018-03-14T08:03:14.432Z,163.13
2018-03-14T08:04:14.456Z,163.13
2018-03-14T08:05:14.546Z,168.75
2018-03-14T08:06:14.488Z,163.13
2018-03-14T08:07:14.523Z,163.13
2018-03-14T08:08:14.510Z,163.13
2018-03-14T08:09:14.535Z,157.50
2018-03-14T08:10:14.565Z,163.13
2018-03-14T08:11:14.566Z,163.13
2018-03-14T08:12:14.578Z,168.75
2018-03-14T08:13:14.589Z,168.75
2018-03-14T08:14:14.625Z,168.75
2018-03-14T08:15:14.619Z,168.75
2018-03-14T08:16:14.632Z,174.38
2018-03-14T08:17:14.704Z,174.38
2018-03-14T08:18:14.667Z,180.00
2018-03-14T08:19:14.688Z,185.63
2018-03-14T08:20:14.719Z,191.25
2018-03-14T08:21:14.750Z,191.25
2018-03-14T08:22:14.726Z,191.25
2018-03-14T08:23:14.747Z,196.88
2018-03-14T08:24:14.764Z,196.88
2018-03-14T08:25:14.768Z,196.88
2018-03-14T08:26:14.786Z,202.50
2018-03-14T08:27:14.838Z,202.50
2018-03-14T08:28:14.818Z,208.13
2018-03-14T08:29:14.860Z,208.13
2018-03-14T08:30:14.846Z,202.50
2018-03-14T08:31:14.884Z,208.13
2018-03-14T08:32:14.877Z,213.75
2018-03-14T08:33:14.910Z,225.00
2018-03-14T08:34:14.919Z,236.25
2018-03-14T08:35:14.933Z,253.13
2018-03-14T08:36:14.943Z,270.00
2018-03-14T08:37:14.985Z,286.88
2018-03-14T08:38:14.979Z,286.88
2018-03-14T08:39:14.997Z,286.88
2018-03-14T08:40:15.020Z,292.50
2018-03-14T08:41:15.035Z,298.13
2018-03-14T08:42:15.048Z,315.00
2018-03-14T08:43:15.048Z,343.13
2018-03-14T08:44:15.066Z,365.63
2018-03-14T08:45:15.087Z,371.25
2018-03-14T08:46:15.138Z,365.63
2018-03-14T08:47:15.116Z,365.63
2018-03-14T08:48:15.134Z,360.00
2018-03-14T08:49:15.155Z,360.00
2018-03-14T08:50:15.167Z,365.63
2018-03-14T08:51:15.208Z,365.63
2018-03-14T08:52:15.194Z,371.25
2018-03-14T08:53:15.228Z,365.63
2018-03-14T08:54:15.293Z,365.63
2018-03-14T08:55:15.246Z,360.00
2018-03-14T08:56:15.263Z,360.00
2018-03-14T08:57:15.288Z,360.00
2018-03-14T08:58:15.303Z,354.38
2018-03-14T08:59:15.360Z,360.00
2018-03-14T09:00:15.333Z,360.00
2018-03-14T09:01:15.340Z,360.00
2018-03-14T09:02:15.381Z,365.63
2018-03-14T09:03:15.389Z,376.88
2018-03-14T09:04:15.387Z,388.13
2018-03-14T09:05:15.437Z,388.13
2018-03-14T09:06:15.454Z,393.75
2018-03-14T09:07:15.457Z,399.38
2018-03-14T09:08:15.572Z,393.75
2018-03-14T09:09:15.519Z,393.75
2018-03-14T09:10:15.503Z,405.00
2018-03-14T09:11:15.522Z,416.25
2018-03-14T09:12:15.522Z,433.13
2018-03-14T09:13:15.572Z,444.38
2018-03-14T09:14:15.568Z,444.38
2018-03-14T09:15:15.581Z,421.88
2018-03-14T09:16:15.595Z,410.63
2018-03-14T09:17:15.611Z,416.25
2018-03-14T09:18:15.631Z,416.25
2018-03-14T09:19:15.652Z,399.38
2018-03-14T09:20:15.675Z,376.88
2018-03-14T09:21:15.706Z,354.38
2018-03-14T09:22:15.703Z,348.75
2018-03-14T09:23:15.709Z,343.13
2018-03-14T09:24:15.717Z,343.13
2018-03-14T09:25:15.816Z,360.00
2018-03-14T09:26:15.767Z,371.25
2018-03-14T09:27:15.798Z,376.88
2018-03-14T09:28:15.807Z,365.63
2018-03-14T09:29:15.809Z,360.00
2018-03-14T09:30:15.857Z,354.38
2018-03-14T09:31:15.859Z,354.38
2018-03-14T09:32:15.908Z,354.38
2018-03-14T09:33:15.899Z,365.63
2018-03-14T09:34:15.892Z,371.25
2018-03-14T09:35:15.936Z,371.25
2018-03-14T09:36:15.914Z,360.00
2018-03-14T09:37:15.951Z,360.00
2018-03-14T09:38:15.963Z,360.00
2018-03-14T09:39:15.990Z,371.25
2018-03-14T09:40:15.994Z,371.25
2018-03-14T09:41:16.003Z,376.88
2018-03-14T09:42:16.021Z,382.50
2018-03-14T09:43:16.048Z,388.13
2018-03-14T09:44:16.067Z,405.00
2018-03-14T09:45:16.111Z,416.25
2018-03-14T09:46:16.088Z,433.13
2018-03-14T09:47:16.138Z,461.25
2018-03-14T09:48:16.212Z,461.25
2018-03-14T09:49:16.145Z,455.63
2018-03-14T09:50:16.204Z,438.75
2018-03-14T09:51:16.193Z,427.50
2018-03-14T09:52:16.199Z,427.50
2018-03-14T09:53:16.235Z,444.38
2018-03-14T09:54:16.226Z,461.25
2018-03-14T09:55:16.237Z,478.13
2018-03-14T09:56:16.262Z,495.00
2018-03-14T09:57:16.292Z,506.25
2018-03-14T09:58:16.299Z,517.50
2018-03-14T09:59:16.354Z,517.50
2018-03-14T10:00:16.323Z,517.50
2018-03-14T10:01:16.349Z,511.88
2018-03-14T10:02:16.380Z,506.25
2018-03-14T10:03:16.377Z,489.38
2018-03-14T10:04:16.413Z,478.13
2018-03-14T10:05:16.412Z,472.50
2018-03-14T10:06:16.422Z,461.25
2018-03-14T10:07:16.498Z,450.00
2018-03-14T10:08:16.481Z,455.63
2018-03-14T10:09:16.517Z,466.88
2018-03-14T10:10:16.493Z,489.38
2018-03-14T10:11:16.520Z,500.63
2018-03-14T10:12:16.528Z,506.25
2018-03-14T10:13:16.543Z,506.25
2018-03-14T10:14:16.560Z,506.25
2018-03-14T10:15:16.604Z,511.88
2018-03-14T10:16:16.602Z,517.50
2018-03-14T10:17:16.621Z,523.13
2018-03-14T10:18:16.636Z,528.75
2018-03-14T10:19:16.696Z,528.75
2018-03-14T10:20:16.673Z,534.38
2018-03-14T10:21:16.678Z,534.38
2018-03-14T10:22:16.696Z,528.75
2018-03-14T10:23:16.749Z,528.75
2018-03-14T10:24:16.737Z,523.13
2018-03-14T10:25:16.752Z,523.13
2018-03-14T10:26:16.759Z,523.13
2018-03-14T10:27:16.790Z,517.50
2018-03-14T10:28:16.821Z,511.88
2018-03-14T10:29:16.820Z,511.88
2018-03-14T10:30:16.838Z,511.88
2018-03-14T10:31:16.854Z,517.50
2018-03-14T10:32:16.889Z,528.75
2018-03-14T10:33:16.919Z,540.00
2018-03-14T10:34:16.916Z,551.25
2018-03-14T10:35:16.980Z,562.50
2018-03-14T10:36:16.954Z,568.13
2018-03-14T10:37:16.995Z,562.50
2018-03-14T10:38:16.996Z,551.25
2018-03-14T10:39:17.024Z,540.00
2018-03-14T10:40:17.013Z,528.75
2018-03-14T10:41:17.045Z,517.50
2018-03-14T10:42:17.050Z,500.63
2018-03-14T10:43:17.055Z,483.75
2018-03-14T10:44:17.084Z,461.25
2018-03-14T10:45:17.103Z,450.00
2018-03-14T10:46:17.118Z,427.50
2018-03-14T10:47:17.151Z,410.63
2018-03-14T10:48:17.156Z,410.63
2018-03-14T10:49:17.192Z,416.25
2018-03-14T10:50:17.185Z,421.88
2018-03-14T10:51:17.208Z,427.50
2018-03-14T10:52:17.221Z,438.75
2018-03-14T10:53:17.240Z,444.38
2018-03-14T10:54:17.265Z,450.00
2018-03-14T10:55:17.286Z,455.63
2018-03-14T10:56:17.345Z,461.25
2018-03-14T10:57:17.314Z,466.88
2018-03-14T10:58:17.322Z,472.50
2018-03-14T10:59:17.337Z,472.50
2018-03-14T11:00:17.357Z,472.50
2018-03-14T11:01:17.420Z,466.88
2018-03-14T11:02:17.395Z,466.88
2018-03-14T11:03:17.405Z,461.25
2018-03-14T11:04:17.434Z,455.63
2018-03-14T11:05:17.444Z,444.38
2018-03-14T11:06:17.462Z,433.13
2018-03-14T11:07:17.530Z,421.88
2018-03-14T11:08:17.490Z,410.63
2018-03-14T11:09:17.511Z,410.63
2018-03-14T11:10:17.549Z,405.00
2018-03-14T11:11:17.553Z,405.00
2018-03-14T11:12:17.582Z,399.38
2018-03-14T11:13:17.593Z,405.00
2018-03-14T11:14:17.599Z,405.00
2018-03-14T11:15:17.665Z,410.63
2018-03-14T11:16:17.634Z,405.00
2018-03-14T11:17:17.652Z,405.00
2018-03-14T11:18:17.672Z,393.75
2018-03-14T11:19:17.696Z,388.13
2018-03-14T11:20:17.756Z,382.50
2018-03-14T11:21:17.728Z,376.88
2018-03-14T11:22:17.733Z,376.88
2018-03-14T11:23:17.777Z,371.25
2018-03-14T11:24:17.789Z,371.25
2018-03-14T11:25:17.796Z,365.63
2018-03-14T11:26:17.801Z,360.00
2018-03-14T11:27:17.834Z,354.38
2018-03-14T11:28:17.839Z,354.38
2018-03-14T11:29:17.865Z,354.38
2018-03-14T11:30:17.909Z,354.38
2018-03-14T11:31:17.898Z,354.38
2018-03-14T11:32:17.943Z,371.25
2018-03-14T11:33:17.915Z,382.50
2018-03-14T11:34:17.959Z,393.75
2018-03-14T11:35:17.989Z,399.38
2018-03-14T11:36:18.007Z,405.00
2018-03-14T11:37:17.984Z,393.75
2018-03-14T11:38:18.056Z,382.50
2018-03-14T11:39:18.029Z,371.25
2018-03-14T11:40:18.052Z,348.75
2018-03-14T11:41:18.081Z,331.88
2018-03-14T11:42:18.092Z,326.25
2018-03-14T11:43:18.120Z,320.63
2018-03-14T11:44:18.141Z,315.00
2018-03-14T11:45:18.136Z,303.75
2018-03-14T11:46:18.159Z,292.50
2018-03-14T11:47:18.156Z,281.25
2018-03-14T11:48:18.180Z,281.25
2018-03-14T11:49:18.199Z,286.88
2018-03-14T11:50:18.217Z,281.25
2018-03-14T11:51:18.241Z,286.88
2018-03-14T11:52:18.256Z,281.25
2018-03-14T11:53:18.288Z,286.88
2018-03-14T11:54:18.274Z,286.88
2018-03-14T11:55:18.295Z,286.88
2018-03-14T11:56:18.312Z,286.88
2018-03-14T11:57:18.338Z,292.50
2018-03-14T11:58:18.342Z,292.50
2018-03-14T11:59:18.362Z,303.75
2018-03-14T12:00:18.385Z,315.00
2018-03-14T12:01:18.396Z,320.63
2018-03-14T12:02:18.422Z,331.88
2018-03-14T12:03:18.444Z,331.88
2018-03-14T12:04:18.464Z,326.25
2018-03-14T12:05:18.469Z,315.00
2018-03-14T12:06:18.656Z,309.38
2018-03-14T12:07:18.496Z,298.13
2018-03-14T12:08:18.505Z,292.50
2018-03-14T12:09:18.552Z,286.88
2018-03-14T12:10:18.599Z,281.25
2018-03-14T12:11:18.562Z,281.25
2018-03-14T12:12:18.584Z,275.63
2018-03-14T12:13:18.606Z,275.63
2018-03-14T12:14:18.632Z,275.63
2018-03-14T12:15:18.633Z,275.63
2018-03-14T12:16:18.706Z,275.63
2018-03-14T12:17:18.664Z,275.63
2018-03-14T12:18:18.685Z,275.63
2018-03-14T12:19:18.705Z,275.63
2018-03-14T12:20:18.711Z,275.63
2018-03-14T12:21:18.776Z,281.25
2018-03-14T12:22:18.782Z,286.88
2018-03-14T12:23:18.757Z,286.88
2018-03-14T12:24:18.784Z,292.50
2018-03-14T12:25:18.827Z,298.13
2018-03-14T12:26:18.841Z,298.13
2018-03-14T12:27:18.876Z,298.13
2018-03-14T12:28:18.879Z,298.13
2018-03-14T12:29:18.899Z,286.88
2018-03-14T12:30:18.881Z,275.63
2018-03-14T12:31:18.932Z,275.63
2018-03-14T12:32:18.918Z,275.63
2018-03-14T12:33:18.973Z,281.25
2018-03-14T12:34:18.958Z,292.50
2018-03-14T12:35:19.002Z,298.13
2018-03-14T12:36:18.980Z,303.75
2018-03-14T12:37:18.989Z,298.13
2018-03-14T12:38:19.025Z,286.88
2018-03-14T12:39:19.029Z,281.25
2018-03-14T12:40:19.051Z,281.25
2018-03-14T12:41:19.064Z,286.88
2018-03-14T12:42:19.112Z,298.13
2018-03-14T12:43:19.121Z,309.38
2018-03-14T12:44:19.115Z,320.63
2018-03-14T12:45:19.133Z,320.63
2018-03-14T12:46:19.174Z,320.63
2018-03-14T12:47:19.178Z,320.63
2018-03-14T12:48:19.187Z,320.63
2018-03-14T12:49:19.190Z,337.50
2018-03-14T12:50:19.344Z,348.75
2018-03-14T12:51:19.234Z,354.38
2018-03-14T12:52:19.254Z,354.38